createdAt,value
2019-05-26T00:04:23.306Z,96.6
2019-05-26T00:09:19.759Z,96.6
2019-05-26T00:14:16.226Z,96.6
2019-05-26T00:19:12.686Z,96.8
2019-05-26T00:24:08.802Z,97
2019-05-26T00:29:05.154Z,97
2019-05-26T00:34:01.711Z,97
2019-05-26T00:38:57.964Z,97
2019-05-26T00:43:54.293Z,97
2019-05-26T00:48:50.779Z,97.1
2019-05-26T00:53:47.205Z,97.1
2019-05-26T00:58:43.411Z,97.3
2019-05-26T01:03:39.773Z,97.4
2019-05-26T01:08:36.148Z,97.4
2019-05-26T01:13:32.327Z,97.8
2019-05-26T01:18:28.285Z,97.7
2019-05-26T01:23:24.481Z,97.8
2019-05-26T01:28:20.685Z,98.2
2019-05-26T01:33:17.029Z,98.2
2019-05-26T01:38:22.934Z,98
2019-05-26T01:43:09.435Z,98
2019-05-26T01:48:05.665Z,98.2
2019-05-26T01:53:02.124Z,98.4
2019-05-26T01:57:58.353Z,98.3
2019-05-26T02:02:54.670Z,98.6
2019-05-26T02:07:50.822Z,98.8
2019-05-26T02:12:47.088Z,98.8
2019-05-26T02:17:43.433Z,98.8
2019-05-26T02:22:39.622Z,99
2019-05-26T02:27:35.868Z,99.3
2019-05-26T02:32:32.171Z,98.9
2019-05-26T02:37:28.455Z,99.1
2019-05-26T02:42:24.595Z,98.8
2019-05-26T02:47:20.994Z,98.9
2019-05-26T02:52:17.414Z,98.6
2019-05-26T02:57:13.683Z,98.9
2019-05-26T03:02:09.898Z,98.7
2019-05-26T03:07:06.265Z,98.6
2019-05-26T03:12:02.370Z,98.2
2019-05-26T03:16:58.692Z,97.9
2019-05-26T03:21:54.943Z,96.9
2019-05-26T03:26:51.523Z,93.9
2019-05-26T03:31:47.601Z,92.4
2019-05-26T03:36:44.389Z,83.6
2019-05-26T03:41:41.480Z,81.6
2019-05-26T03:46:38.643Z,75.6
2019-05-26T03:51:36.002Z,71.9
2019-05-26T03:56:33.677Z,71.6
2019-05-26T04:01:31.112Z,68.2
2019-05-26T04:06:28.236Z,64.3
2019-05-26T04:11:25.573Z,61.6
2019-05-26T04:16:23.140Z,62.4
2019-05-26T04:21:20.413Z,57.3
2019-05-26T04:26:17.939Z,53.6
2019-05-26T04:31:14.997Z,53.3
2019-05-26T04:36:12.187Z,51.7
2019-05-26T04:41:09.545Z,50.5
2019-05-26T04:46:06.779Z,52.2
2019-05-26T04:51:03.956Z,45.8
2019-05-26T04:56:01.087Z,47.2
2019-05-26T05:00:58.049Z,47.3
2019-05-26T05:05:54.978Z,51
2019-05-26T05:10:51.938Z,47.8
2019-05-26T05:15:48.908Z,46.3
2019-05-26T05:20:46.060Z,47.5
2019-05-26T05:25:43.118Z,52.1
2019-05-26T05:30:39.965Z,49.5
2019-05-26T05:35:36.388Z,48.7
2019-05-26T05:40:33.382Z,45.8
2019-05-26T05:45:30.939Z,47.6
2019-05-26T05:50:28.361Z,43.6
2019-05-26T05:55:25.508Z,46.3
2019-05-26T06:00:22.311Z,45.3
2019-05-26T06:05:19.427Z,46.3
2019-05-26T06:10:16.633Z,45.1
2019-05-26T06:15:15.513Z,47.1
2019-05-26T06:20:10.306Z,48.4
2019-05-26T06:25:07.415Z,46.5
2019-05-26T06:30:04.893Z,45.4
2019-05-26T06:35:02.164Z,43.5
2019-05-26T06:39:59.490Z,44.8
2019-05-26T06:44:56.568Z,43.6
2019-05-26T06:49:53.687Z,44.2
2019-05-26T06:54:50.589Z,38.9
2019-05-26T06:59:47.470Z,44.4
2019-05-26T07:04:44.483Z,41.9
2019-05-26T07:09:41.312Z,39.3
2019-05-26T07:14:38.023Z,43.8
2019-05-26T07:19:35.251Z,42.6
2019-05-26T07:24:32.315Z,39.8
2019-05-26T07:29:29.278Z,39
2019-05-26T07:34:26.402Z,40.5
2019-05-26T07:39:23.282Z,41
2019-05-26T07:44:20.277Z,39.8
2019-05-26T07:49:17.497Z,35.6
2019-05-26T07:54:24.846Z,37.9
2019-05-26T07:59:11.771Z,37.7
2019-05-26T08:04:08.789Z,33.9
2019-05-26T08:09:05.822Z,35.9
2019-05-26T08:14:02.579Z,34.2
2019-05-26T08:18:59.300Z,35.9
2019-05-26T08:23:56.170Z,33.3
2019-05-26T08:28:53.476Z,33.4
2019-05-26T08:33:50.291Z,35.4
2019-05-26T08:38:48.011Z,34.5
2019-05-26T08:43:45.046Z,32.4
2019-05-26T08:48:42.094Z,33.1
2019-05-26T08:53:40.830Z,33.6
2019-05-26T08:58:37.138Z,31.5
2019-05-26T09:03:33.948Z,37.5
2019-05-26T09:08:29.813Z,29.4
2019-05-26T09:13:26.772Z,29.9
2019-05-26T09:18:23.728Z,30.2
2019-05-26T09:23:19.960Z,35.9
2019-05-26T09:28:17.118Z,34.8
2019-05-26T09:33:12.648Z,35.3
2019-05-26T09:38:08.592Z,35.9
2019-05-26T09:43:15.434Z,28.5
2019-05-26T09:48:02.952Z,30.8
2019-05-26T09:53:00.915Z,31.6
2019-05-26T09:57:58.356Z,27.3
2019-05-26T10:02:56.852Z,30.2
2019-05-26T10:07:53.971Z,30.3
2019-05-26T10:12:51.291Z,29.2
2019-05-26T10:17:47.977Z,31.7
2019-05-26T10:22:44.821Z,29.2
2019-05-26T10:27:42.065Z,30.8
2019-05-26T10:32:39.153Z,30.5
2019-05-26T10:37:36.251Z,30.6
2019-05-26T10:42:33.802Z,31.3
2019-05-26T10:47:30.594Z,34.1
2019-05-26T10:52:27.006Z,29.4
2019-05-26T10:57:26.973Z,26.2
2019-05-26T11:02:24.114Z,27.2
2019-05-26T11:07:21.557Z,24.6
2019-05-26T11:12:18.892Z,24.7
2019-05-26T11:17:15.100Z,24.9
2019-05-26T11:22:11.003Z,28
2019-05-26T11:27:11.245Z,23.2
2019-05-26T11:32:04.767Z,32.3
2019-05-26T11:37:00.690Z,33.9
2019-05-26T11:42:10.536Z,31.9
2019-05-26T11:46:53.245Z,34.5
2019-05-26T11:51:49.639Z,28.2
2019-05-26T11:56:46.317Z,32.1
2019-05-26T12:01:43.563Z,29.3
2019-05-26T12:06:40.101Z,35.9
2019-05-26T12:11:36.790Z,30.9
2019-05-26T12:16:33.702Z,28.7
2019-05-26T12:21:31.036Z,25.7
2019-05-26T12:26:28.087Z,29
2019-05-26T12:31:25.229Z,34.1
2019-05-26T12:36:21.842Z,26.9
2019-05-26T12:41:17.927Z,32.1
2019-05-26T12:46:15.043Z,27.9
2019-05-26T12:51:12.021Z,26.9
2019-05-26T12:56:07.954Z,28.4
2019-05-26T13:01:04.552Z,28.9
2019-05-26T13:06:01.676Z,33.1
2019-05-26T13:10:58.639Z,27.4
2019-05-26T13:15:54.932Z,26.6
2019-05-26T13:20:51.291Z,30.1
2019-05-26T13:25:47.598Z,37.1
2019-05-26T13:30:44.033Z,28
2019-05-26T13:35:40.738Z,24.5
2019-05-26T13:40:38.380Z,27
2019-05-26T13:45:35.508Z,31.1
2019-05-26T13:50:31.451Z,22.8
2019-05-26T13:55:27.823Z,29.8
2019-05-26T14:00:23.774Z,37
2019-05-26T14:05:19.231Z,36.3
2019-05-26T14:10:15.047Z,36.8
2019-05-26T14:15:11.027Z,39.6
2019-05-26T14:20:07.438Z,33.9
2019-05-26T14:25:04.362Z,29.8
2019-05-26T14:30:01.174Z,31.1
2019-05-26T14:34:57.215Z,33.8
2019-05-26T14:39:53.424Z,38.7
2019-05-26T14:44:49.886Z,38.3
2019-05-26T14:49:47.178Z,39
2019-05-26T14:54:43.452Z,40.2
2019-05-26T14:59:39.629Z,39
2019-05-26T15:04:35.846Z,43.6
2019-05-26T15:09:32.448Z,44.2
2019-05-26T15:14:28.808Z,41.1
2019-05-26T15:19:25.413Z,40.3
2019-05-26T15:24:21.906Z,42.4
2019-05-26T15:29:18.689Z,37
2019-05-26T15:34:15.007Z,44
2019-05-26T15:39:11.460Z,43.2
2019-05-26T15:44:07.900Z,44.4
2019-05-26T15:49:03.999Z,45
2019-05-26T15:54:00.129Z,43.4
2019-05-26T15:58:56.485Z,45.2
2019-05-26T16:03:52.812Z,46.9
2019-05-26T16:08:49.114Z,45.8
2019-05-26T16:13:45.620Z,43.6
2019-05-26T16:18:42.198Z,46.2
2019-05-26T16:23:38.627Z,42.9
2019-05-26T16:28:35.201Z,46.6
2019-05-26T16:33:31.888Z,47.1
2019-05-26T16:38:27.910Z,46.3
2019-05-26T16:43:24.276Z,51.6
2019-05-26T16:48:20.855Z,52.1
2019-05-26T16:53:17.233Z,50.5
2019-05-26T16:58:13.528Z,48.6
2019-05-26T17:03:10.016Z,50.8
2019-05-26T17:08:06.427Z,53.5
2019-05-26T17:13:03.096Z,54.5
2019-05-26T17:17:59.405Z,53.3
2019-05-26T17:22:55.703Z,52.3
2019-05-26T17:27:52.229Z,52.3
2019-05-26T17:32:48.546Z,53.3
2019-05-26T17:37:44.987Z,52.4
2019-05-26T17:42:41.099Z,52.4
2019-05-26T17:47:37.340Z,56.8
2019-05-26T17:52:33.735Z,55.2
2019-05-26T17:57:30.246Z,61.7
2019-05-26T18:02:26.341Z,63.4
2019-05-26T18:07:22.799Z,60.4
2019-05-26T18:12:19.142Z,56.4
2019-05-26T18:17:15.842Z,57.4
2019-05-26T18:22:12.541Z,56.1
2019-05-26T18:27:09.301Z,55.9
2019-05-26T18:32:05.917Z,58.9
2019-05-26T18:37:01.823Z,56.9
2019-05-26T18:41:58.405Z,55.9
2019-05-26T18:46:55.342Z,56.5
2019-05-26T18:51:51.953Z,52.4
2019-05-26T18:56:48.184Z,53.6
2019-05-26T19:01:44.951Z,53.6
2019-05-26T19:06:41.504Z,53.4
2019-05-26T19:11:38.290Z,53.8
2019-05-26T19:16:34.663Z,53.3
2019-05-26T19:21:30.938Z,53.4
2019-05-26T19:26:27.405Z,53.4
2019-05-26T19:31:24.087Z,54.8
2019-05-26T19:36:20.774Z,55.4
2019-05-26T19:41:17.277Z,54
2019-05-26T19:46:13.666Z,59.7
2019-05-26T19:51:10.288Z,59.7
2019-05-26T19:56:06.950Z,61
2019-05-26T20:01:03.373Z,61.2
2019-05-26T20:05:59.851Z,64
2019-05-26T20:10:56.369Z,63.3
2019-05-26T20:15:52.489Z,62
2019-05-26T20:20:48.982Z,61.5
2019-05-26T20:25:45.374Z,63.1
2019-05-26T20:30:41.835Z,63.2
2019-05-26T20:35:38.572Z,64.4
2019-05-26T20:40:34.992Z,60.3
2019-05-26T20:45:31.669Z,60.9
2019-05-26T20:50:29.850Z,63.8
2019-05-26T20:55:24.919Z,61.9
2019-05-26T21:00:21.446Z,66.7
2019-05-26T21:05:18.112Z,65.8
2019-05-26T21:10:14.118Z,64.1
2019-05-26T21:15:10.820Z,63.5
2019-05-26T21:20:06.863Z,65.9
2019-05-26T21:25:03.281Z,63.2
2019-05-26T21:29:59.389Z,65.9
2019-05-26T21:34:55.818Z,67.5
2019-05-26T21:39:52.231Z,67.1
2019-05-26T21:44:48.519Z,71.8
2019-05-26T21:49:45.004Z,70
2019-05-26T21:54:41.529Z,65.9
2019-05-26T21:59:37.876Z,68.4
2019-05-26T22:04:33.769Z,71.8
2019-05-26T22:09:30.087Z,76
2019-05-26T22:14:26.487Z,76.3
2019-05-26T22:19:22.722Z,77.7
2019-05-26T22:24:18.432Z,75.7
2019-05-26T22:29:14.781Z,75.8
2019-05-26T22:34:11.207Z,79.2
2019-05-26T22:39:07.279Z,78.9
2019-05-26T22:44:03.723Z,80.8
2019-05-26T22:48:59.893Z,82
2019-05-26T22:53:56.257Z,80.4
2019-05-26T22:58:52.675Z,81.7
2019-05-26T23:03:48.995Z,80.3
2019-05-26T23:08:45.371Z,80.2
2019-05-26T23:13:41.708Z,78.5
2019-05-26T23:18:37.901Z,75.8
2019-05-26T23:23:34.558Z,73.9
2019-05-26T23:28:31.381Z,70.5
2019-05-26T23:33:28.011Z,71.3
2019-05-26T23:38:24.737Z,72.9
2019-05-26T23:43:21.338Z,74.3
2019-05-26T23:48:17.869Z,78.4
2019-05-26T23:53:14.200Z,81.1
2019-05-26T23:58:10.496Z,82.5
